Wind EuroAirport

Messzeit Windrichtung Windgeschwindigkeit [Knoten] Rückenwind Nordpiste [Knoten] METAR
2022-05-15 23:00 O 110°
(90°–150°)
7 - LFSB 152100Z AUTO 11007KT 090V150 9999 TS //////CB 22/14 Q1016 TEMPO 4000 TSRA
2022-05-15 22:30 S 180° 4 - LFSB 152030Z AUTO 18004KT CAVOK 21/14 Q1015 TEMPO 4000 TSRA FEW060CB
2022-05-15 22:00 - 0 - LFSB 152000Z AUTO 00000KT CAVOK 21/14 Q1015 TEMPO VRB10G20KT 4000 TSRA SCT060CB
2022-05-15 21:30 - 2 - LFSB 151930Z AUTO VRB02KT CAVOK 22/14 Q1015 TEMPO 4000 TSRA SCT060CB
2022-05-15 21:00 - 1 - LFSB 151900Z AUTO VRB01KT CAVOK 24/14 Q1015 TEMPO 4000 TSRA SCT060CB
2022-05-15 20:30 - 2 - LFSB 151830Z AUTO VRB02KT CAVOK 26/14 Q1014 TEMPO 4000 TSRA SCT060CB
2022-05-15 20:00 - 0 - LFSB 151800Z AUTO 00000KT CAVOK 27/11 Q1014 TEMPO VRB10G20KT 4000 TSRA SCT060CB
2022-05-15 19:30 N 350°
(310°–20°)
4 3–4 LFSB 151730Z AUTO 35004KT 310V020 CAVOK 26/11 Q1014 TEMPO 4000 TSRA SCT060CB
2022-05-15 19:00 N 340° 5 5 LFSB 151700Z 34005KT 9999 FEW060CB BKN260 27/14 Q1014 NOSIG
2022-05-15 18:30 N 10° 6 5 LFSB 151630Z 01006KT 9999 FEW060CB BKN260 28/12 Q1014 NOSIG
2022-05-15 18:00 var 360° 5 5 LFSB 151600Z 36005KT 9999 FEW060CB BKN260 28/13 Q1014 NOSIG
2022-05-15 17:30 var 360°
(330°–30°)
5 3–5 LFSB 151530Z 36005KT 330V030 9999 FEW060CB BKN260 28/13 Q1014 NOSIG
2022-05-15 17:00 var 360°
(330°–40°)
6 3–6 LFSB 151500Z 36006KT 330V040 9999 FEW060CB BKN260 28/13 Q1015 NOSIG
2022-05-15 16:30 N 350°
(310°–80°)
4 0–4 LFSB 151430Z 35004KT 310V080 9999 FEW060TCU BKN260 28/13 Q1015 TEMPO FEW060CB
2022-05-15 16:00 - 3 - LFSB 151400Z VRB03KT CAVOK 28/14 Q1015 TEMPO FEW060CB
2022-05-15 15:30 N 350°
(230°–20°)
4 0–4 LFSB 151330Z 35004KT 230V020 CAVOK 28/13 Q1016 TEMPO FEW060CB
2022-05-15 15:00 - 3 - LFSB 151300Z VRB03KT CAVOK 27/13 Q1016 TEMPO FEW060TCU
2022-05-15 14:30 N 350°
(320°–40°)
5 3–5 LFSB 151230Z 35005KT 320V040 9999 FEW053 BKN260 27/14 Q1016 TEMPO FEW060TCU
2022-05-15 14:00 var 360°
(310°–40°)
4 2–4 LFSB 151200Z 36004KT 310V040 9999 FEW050 BKN260 26/14 Q1016 NOSIG
2022-05-15 13:30 N 10°
(330°–70°)
4 0–4 LFSB 151130Z 01004KT 330V070 9999 FEW050 BKN260 26/14 Q1017 NOSIG
2022-05-15 13:00 - 3 - LFSB 151100Z VRB03KT 9999 FEW050 BKN260 25/13 Q1017 NOSIG
2022-05-15 12:30 - 4 - LFSB 151030Z VRB04KT 9999 FEW046 BKN260 25/13 Q1017 NOSIG
2022-05-15 12:00 N 340°
(290°–30°)
5 3–5 LFSB 151000Z 34005KT 290V030 9999 FEW040 BKN260 23/13 Q1017 NOSIG
2022-05-15 11:30 NW 330°
(290°–20°)
4 3–4 LFSB 150930Z 33004KT 290V020 9999 FEW033 BKN260 22/13 Q1018 NOSIG
2022-05-15 11:00 - 3 - LFSB 150900Z VRB03KT CAVOK 22/13 Q1018 NOSIG
2022-05-15 10:30 var 360°
(290°–50°)
4 1–4 LFSB 150830Z 36004KT 290V050 CAVOK 21/12 Q1018 NOSIG
2022-05-15 10:00 - 2 - LFSB 150800Z VRB02KT CAVOK 20/11 Q1018 NOSIG
2022-05-15 09:30 - 2 - LFSB 150730Z VRB02KT CAVOK 18/12 Q1018 NOSIG
2022-05-15 09:00 - 2 - LFSB 150700Z VRB02KT CAVOK 17/11 Q1018 NOSIG
2022-05-15 08:30 - 1 - LFSB 150630Z VRB01KT CAVOK 16/10 Q1018 NOSIG
2022-05-15 08:00 - 2 - LFSB 150600Z VRB02KT CAVOK 15/10 Q1018 NOSIG
2022-05-15 07:30 S 160° 3 - LFSB 150530Z 16003KT CAVOK 13/09 Q1019 NOSIG
2022-05-15 07:00 - 3 - LFSB 150500Z VRB03KT CAVOK 11/09 Q1019 NOSIG
2022-05-15 06:30 S 200° 3 - LFSB 150430Z AUTO 20003KT CAVOK 10/08 Q1019 NOSIG
2022-05-15 06:00 SW 220° 1 - LFSB 150400Z AUTO 22001KT CAVOK 09/08 Q1019 NOSIG
2022-05-15 05:30 W 260° 2 - LFSB 150330Z AUTO 26002KT CAVOK 09/07 Q1019 NOSIG
2022-05-15 05:00 - 0 - LFSB 150300Z AUTO 00000KT CAVOK 09/08 Q1018 NOSIG
2022-05-15 04:30 W 260° 1 - LFSB 150230Z AUTO 26001KT CAVOK 10/08 Q1018 NOSIG
2022-05-15 04:00 W 250° 2 - LFSB 150200Z AUTO 25002KT CAVOK 10/08 Q1018 NOSIG
2022-05-15 03:30 - 0 - LFSB 150130Z AUTO 00000KT CAVOK 10/08 Q1018 NOSIG
2022-05-15 03:00 - 0 - LFSB 150100Z AUTO 00000KT CAVOK 11/08 Q1018 NOSIG
2022-05-15 02:30 S 160° 2 - LFSB 150030Z AUTO 16002KT CAVOK 12/08 Q1019 NOSIG
2022-05-15 02:00 S 180° 2 - LFSB 150000Z AUTO 18002KT CAVOK 11/08 Q1019 NOSIG
2022-05-15 01:30 - 0 - LFSB 142330Z AUTO 00000KT CAVOK 12/08 Q1019 NOSIG
2022-05-15 01:00 SW 220° 1 - LFSB 142300Z AUTO 22001KT CAVOK 12/08 Q1019 NOSIG
2022-05-15 00:30 O 90° 2 - LFSB 142230Z AUTO 09002KT CAVOK 13/09 Q1019 NOSIG
2022-05-15 00:00 - 2 - LFSB 142200Z AUTO VRB02KT CAVOK 13/09 Q1019 NOSIG
2022-05-14 23:30 SO 140° 1 - LFSB 142130Z AUTO 14001KT CAVOK 14/09 Q1019 NOSIG